Frojdi II — ZAD4L — position and weather

sailwx.info

Track history (hours):
 
Tides and Currents Weather Stations Pressure Air Temp Water Temp Dewpoint Dewpoint Depression Visibility Wind Speed Wind Dir Waves Ship Positions

Frojdi II

Last reported at 2019-Feb-13 05:06 UTC. Time now 2019-Feb-21 16:18 UTC.
Position N 44°36' E 014°02'.
Warning: this ship's position is 8 days out of date.

Length 74 m; draft 3.4 m.

Type: Cargo ship. MMSI: 201100115.

Date/timePositionNaut miles runAvg speedWind from/ knotsBaromVisibWave heightAir tempDewpointWater temp
2019-Feb-13 05:06N 44°36' E 014°02'5 6.4
2019-Feb-13 04:17N 44°40' E 013°56'16 6.7
2019-Feb-13 01:55N 44°52' E 013°41'3 6.8
2019-Feb-13 01:30N 44°54' E 013°39'3 6.9
2019-Feb-13 01:00N 44°57' E 013°37'3 6.7
2019-Feb-13 00:30N 44°60' E 013°34'3 6.8
2019-Feb-13 00:00N 45°03' E 013°32'3 6.8
2019-Feb-12 23:30N 45°06' E 013°29'3 6.6
2019-Feb-12 23:00N 45°09' E 013°28'3 6.5
2019-Feb-12 22:30N 45°12' E 013°26'3 6.6
2019-Feb-12 21:59N 45°15' E 013°24'3 6.7
2019-Feb-12 21:30N 45°18' E 013°23'3 6.7
2019-Feb-12 21:00N 45°21' E 013°21'3 6.9
2019-Feb-12 20:31N 45°24' E 013°20'3 6.9
2019-Feb-12 20:00N 45°28' E 013°19'3 7.0
2019-Feb-12 19:30N 45°31' E 013°19'3 6.1
2019-Feb-12 19:00N 45°34' E 013°21'4 7.3
2019-Feb-12 18:30N 45°35' E 013°26'4 7.4
2019-Feb-12 18:00N 45°37' E 013°31'3 7.0
2019-Feb-12 17:30N 45°37' E 013°36'3 6.8
2019-Feb-12 17:00N 45°35' E 013°40'3 6.1
2019-Feb-12 16:30N 45°34' E 013°44'1 0.9
2019-Feb-12 15:56N 45°34' E 013°44'0 0.0
2019-Feb-12 15:27N 45°34' E 013°44'0 0.0
2019-Feb-12 14:43N 45°34' E 013°44'0 0.0
2019-Feb-12 14:28N 45°34' E 013°44'0 0.0
2019-Feb-12 13:51N 45°34' E 013°44'0 0.0
2019-Feb-12 13:27N 45°34' E 013°44'0 0.0
2019-Feb-12 13:00N 45°34' E 013°44'0 0.0
2019-Feb-12 12:27N 45°34' E 013°44'0 0.0
2019-Feb-12 11:58N 45°34' E 013°44'0 0.0
2019-Feb-12 11:23N 45°34' E 013°44'0 0.0
2019-Feb-12 10:59N 45°34' E 013°44'0 0.0
2019-Feb-12 10:29N 45°34' E 013°44'0 0.0
2019-Feb-12 09:57N 45°34' E 013°44'0 0.0
2019-Feb-12 09:28N 45°34' E 013°44'0 0.0
2019-Feb-12 08:54N 45°34' E 013°44'0 0.0
2019-Feb-12 08:30N 45°34' E 013°44'0 0.0
2019-Feb-12 07:55N 45°34' E 013°44'0 0.0
2019-Feb-12 07:26N 45°34' E 013°44'0 0.0
2019-Feb-12 07:00N 45°34' E 013°44'0 0.0
2019-Feb-12 06:20N 45°34' E 013°44'0 0.0
2019-Feb-12 05:59N 45°34' E 013°44'0 0.0
2019-Feb-12 05:26N 45°34' E 013°44'0 0.0
2019-Feb-12 04:57N 45°34' E 013°44'0 0.0
2019-Feb-12 04:30N 45°34' E 013°44'0 0.0
2019-Feb-12 04:00N 45°34' E 013°44'0 0.0
2019-Feb-12 03:25N 45°34' E 013°44'0 0.0
2019-Feb-12 02:48N 45°34' E 013°44'0 0.0
2019-Feb-12 02:30N 45°34' E 013°44'0 0.0
2019-Feb-12 01:59N 45°34' E 013°44'0 0.0
2019-Feb-12 01:30N 45°34' E 013°44'0 0.0
2019-Feb-12 01:00N 45°34' E 013°44'0 0.0
2019-Feb-12 00:28N 45°34' E 013°44'0 0.0
2019-Feb-11 23:56N 45°34' E 013°44'0 0.0
2019-Feb-11 23:25N 45°34' E 013°44'0 0.0
2019-Feb-11 23:00N 45°34' E 013°44'0 0.0
2019-Feb-11 22:30N 45°34' E 013°44'0 0.0
2019-Feb-11 21:50N 45°34' E 013°44'0 0.0
2019-Feb-11 21:29N 45°34' E 013°44'0 0.0
2019-Feb-11 20:48N 45°34' E 013°44'0 0.0
2019-Feb-11 20:29N 45°34' E 013°44'0 0.0
2019-Feb-11 19:58N 45°34' E 013°44'0 0.0
2019-Feb-11 19:28N 45°34' E 013°44'0 0.0
2019-Feb-11 18:59N 45°34' E 013°44'0 0.2
2019-Feb-11 18:30N 45°33' E 013°44'1 2.0
2019-Feb-11 17:58N 45°34' E 013°43'0 0.2
2019-Feb-11 17:29N 45°34' E 013°43'0 0.1
2019-Feb-11 16:57N 45°34' E 013°43'0 0.0
2019-Feb-11 16:30N 45°34' E 013°43'0 0.0
2019-Feb-11 15:56N 45°34' E 013°43'0 0.0
2019-Feb-11 15:29N 45°34' E 013°43'0 0.0
2019-Feb-11 14:56N 45°34' E 013°43'0 0.0
2019-Feb-11 14:29N 45°34' E 013°43'0 0.0
2019-Feb-11 13:49N 45°34' E 013°43'0 0.0
2019-Feb-11 13:23N 45°34' E 013°43'0 0.0
2019-Feb-11 12:57N 45°34' E 013°43'0 0.1
2019-Feb-11 12:29N 45°34' E 013°43'0 0.0
2019-Feb-11 11:59N 45°34' E 013°43'0 0.0
2019-Feb-11 11:22N 45°34' E 013°43'0 0.1
2019-Feb-11 10:54N 45°34' E 013°43'0 0.2
2019-Feb-11 10:27N 45°34' E 013°43'0 0.1
2019-Feb-11 09:59N 45°34' E 013°43'0 0.1
2019-Feb-11 09:29N 45°34' E 013°43'0 0.0
2019-Feb-11 08:58N 45°34' E 013°43'0 0.0
2019-Feb-11 08:25N 45°34' E 013°43'0 0.0
2019-Feb-11 07:56N 45°34' E 013°43'0 0.2
2019-Feb-11 07:29N 45°34' E 013°43'0 0.1
2019-Feb-11 06:59N 45°34' E 013°43'0 0.2
2019-Feb-11 06:24N 45°34' E 013°43'0 0.0
2019-Feb-11 05:53N 45°34' E 013°43'0 0.1
2019-Feb-11 05:11N 45°34' E 013°43'0 0.0
2019-Feb-11 04:49N 45°34' E 013°43'0 0.1
2019-Feb-11 04:25N 45°34' E 013°43'0 0.0
2019-Feb-11 03:58N 45°34' E 013°43'0 0.0
2019-Feb-11 03:28N 45°34' E 013°43'0 0.0
2019-Feb-11 02:53N 45°34' E 013°43'0 0.0
2019-Feb-11 02:29N 45°34' E 013°43'0 0.0
2019-Feb-11 01:55N 45°34' E 013°43'0 0.1
2019-Feb-11 01:30N 45°34' E 013°43'0 0.2
2019-Feb-11 00:58N 45°34' E 013°43'0 0.0
2019-Feb-11 00:25N 45°34' E 013°43'0 0.0
2019-Feb-10 23:55N 45°34' E 013°43'0 0.0
2019-Feb-10 23:27N 45°34' E 013°43'0 0.0
2019-Feb-10 23:00N 45°34' E 013°43'0 0.1
2019-Feb-10 22:28N 45°34' E 013°43'0 0.0
2019-Feb-10 21:57N 45°34' E 013°43'0 0.1
2019-Feb-10 21:23N 45°34' E 013°43'0 0.0
2019-Feb-10 21:00N 45°34' E 013°43'0 0.1
2019-Feb-10 20:30N 45°34' E 013°43'0 0.3
2019-Feb-10 20:00N 45°34' E 013°43'3 5.5
2019-Feb-10 19:30N 45°34' E 013°39'4 7.6
2019-Feb-10 19:00N 45°35' E 013°34'4 7.2
2019-Feb-10 18:30N 45°33' E 013°29'4 7.3
2019-Feb-10 18:00N 45°31' E 013°25'3 6.1
2019-Feb-10 17:30N 45°28' E 013°22'4 7.3
2019-Feb-10 17:00N 45°25' E 013°24'4 7.3
2019-Feb-10 16:30N 45°21' E 013°25'4 7.3
2019-Feb-10 16:00N 45°18' E 013°27'4 7.2
2019-Feb-10 15:30N 45°14' E 013°28'4 7.2
2019-Feb-10 15:00N 45°11' E 013°29'4 7.0
2019-Feb-10 14:30N 45°07' E 013°30'4 7.1
2019-Feb-10 14:00N 45°04' E 013°33'3 7.0
2019-Feb-10 13:30N 45°01' E 013°35'3 7.0
2019-Feb-10 13:00N 44°58' E 013°37'4 7.1
2019-Feb-10 12:30N 44°55' E 013°39'4 7.3
2019-Feb-10 12:00N 44°52' E 013°42'4 7.2
2019-Feb-10 11:30N 44°49' E 013°44'6 7.6
2019-Feb-10 10:42N 44°44' E 013°50'4 7.3
2019-Feb-10 10:12N 44°42' E 013°54'1 7.2
2019-Feb-10 10:00N 44°41' E 013°55'4 7.1
2019-Feb-10 09:30N 44°38' E 013°59'4 7.1
2019-Feb-10 09:00N 44°36' E 014°03'3 7.1
2019-Feb-10 08:30N 44°33' E 014°06'4 7.1
2019-Feb-10 08:00N 44°31' E 014°10'  
Track history (hours):
 
Tides and Currents Weather Stations Pressure Air Temp Water Temp Dewpoint Dewpoint Depression Visibility Wind Speed Wind Dir Waves Ship Positions

Frojdi II

Last reported at 2019-Feb-13 05:06 UTC. Time now 2019-Feb-21 16:18 UTC.
Position N 44°36' E 014°02'.
Warning: this ship's position is 8 days out of date.

Length 74 m; draft 3.4 m.

Type: Cargo ship. MMSI: 201100115.

Date/timePositionNaut miles runAvg speedWind from/ knotsBaromVisibWave heightAir tempDewpointWater temp
2019-Feb-13 05:06N 44°36' E 014°02'5 6.4
2019-Feb-13 04:17N 44°40' E 013°56'16 6.7
2019-Feb-13 01:55N 44°52' E 013°41'3 6.8
2019-Feb-13 01:30N 44°54' E 013°39'3 6.9
2019-Feb-13 01:00N 44°57' E 013°37'3 6.7
2019-Feb-13 00:30N 44°60' E 013°34'3 6.8
2019-Feb-13 00:00N 45°03' E 013°32'3 6.8
2019-Feb-12 23:30N 45°06' E 013°29'3 6.6
2019-Feb-12 23:00N 45°09' E 013°28'3 6.5
2019-Feb-12 22:30N 45°12' E 013°26'3 6.6
2019-Feb-12 21:59N 45°15' E 013°24'3 6.7
2019-Feb-12 21:30N 45°18' E 013°23'3 6.7
2019-Feb-12 21:00N 45°21' E 013°21'3 6.9
2019-Feb-12 20:31N 45°24' E 013°20'3 6.9
2019-Feb-12 20:00N 45°28' E 013°19'3 7.0
2019-Feb-12 19:30N 45°31' E 013°19'3 6.1
2019-Feb-12 19:00N 45°34' E 013°21'4 7.3
2019-Feb-12 18:30N 45°35' E 013°26'4 7.4
2019-Feb-12 18:00N 45°37' E 013°31'3 7.0
2019-Feb-12 17:30N 45°37' E 013°36'3 6.8
2019-Feb-12 17:00N 45°35' E 013°40'3 6.1
2019-Feb-12 16:30N 45°34' E 013°44'1 0.9
2019-Feb-12 15:56N 45°34' E 013°44'0 0.0
2019-Feb-12 15:27N 45°34' E 013°44'0 0.0
2019-Feb-12 14:43N 45°34' E 013°44'0 0.0
2019-Feb-12 14:28N 45°34' E 013°44'0 0.0
2019-Feb-12 13:51N 45°34' E 013°44'0 0.0
2019-Feb-12 13:27N 45°34' E 013°44'0 0.0
2019-Feb-12 13:00N 45°34' E 013°44'0 0.0
2019-Feb-12 12:27N 45°34' E 013°44'0 0.0
2019-Feb-12 11:58N 45°34' E 013°44'0 0.0
2019-Feb-12 11:23N 45°34' E 013°44'0 0.0
2019-Feb-12 10:59N 45°34' E 013°44'0 0.0
2019-Feb-12 10:29N 45°34' E 013°44'0 0.0
2019-Feb-12 09:57N 45°34' E 013°44'0 0.0
2019-Feb-12 09:28N 45°34' E 013°44'0 0.0
2019-Feb-12 08:54N 45°34' E 013°44'0 0.0
2019-Feb-12 08:30N 45°34' E 013°44'0 0.0
2019-Feb-12 07:55N 45°34' E 013°44'0 0.0
2019-Feb-12 07:26N 45°34' E 013°44'0 0.0
2019-Feb-12 07:00N 45°34' E 013°44'0 0.0
2019-Feb-12 06:20N 45°34' E 013°44'0 0.0
2019-Feb-12 05:59N 45°34' E 013°44'0 0.0
2019-Feb-12 05:26N 45°34' E 013°44'0 0.0
2019-Feb-12 04:57N 45°34' E 013°44'0 0.0
2019-Feb-12 04:30N 45°34' E 013°44'0 0.0
2019-Feb-12 04:00N 45°34' E 013°44'0 0.0
2019-Feb-12 03:25N 45°34' E 013°44'0 0.0
2019-Feb-12 02:48N 45°34' E 013°44'0 0.0
2019-Feb-12 02:30N 45°34' E 013°44'0 0.0
2019-Feb-12 01:59N 45°34' E 013°44'0 0.0
2019-Feb-12 01:30N 45°34' E 013°44'0 0.0
2019-Feb-12 01:00N 45°34' E 013°44'0 0.0
2019-Feb-12 00:28N 45°34' E 013°44'0 0.0
2019-Feb-11 23:56N 45°34' E 013°44'0 0.0
2019-Feb-11 23:25N 45°34' E 013°44'0 0.0
2019-Feb-11 23:00N 45°34' E 013°44'0 0.0
2019-Feb-11 22:30N 45°34' E 013°44'0 0.0
2019-Feb-11 21:50N 45°34' E 013°44'0 0.0
2019-Feb-11 21:29N 45°34' E 013°44'0 0.0
2019-Feb-11 20:48N 45°34' E 013°44'0 0.0
2019-Feb-11 20:29N 45°34' E 013°44'0 0.0
2019-Feb-11 19:58N 45°34' E 013°44'0 0.0
2019-Feb-11 19:28N 45°34' E 013°44'0 0.0
2019-Feb-11 18:59N 45°34' E 013°44'0 0.2
2019-Feb-11 18:30N 45°33' E 013°44'1 2.0
2019-Feb-11 17:58N 45°34' E 013°43'0 0.2
2019-Feb-11 17:29N 45°34' E 013°43'0 0.1
2019-Feb-11 16:57N 45°34' E 013°43'0 0.0
2019-Feb-11 16:30N 45°34' E 013°43'0 0.0
2019-Feb-11 15:56N 45°34' E 013°43'0 0.0
2019-Feb-11 15:29N 45°34' E 013°43'0 0.0
2019-Feb-11 14:56N 45°34' E 013°43'0 0.0
2019-Feb-11 14:29N 45°34' E 013°43'0 0.0
2019-Feb-11 13:49N 45°34' E 013°43'0 0.0
2019-Feb-11 13:23N 45°34' E 013°43'0 0.0
2019-Feb-11 12:57N 45°34' E 013°43'0 0.1
2019-Feb-11 12:29N 45°34' E 013°43'0 0.0
2019-Feb-11 11:59N 45°34' E 013°43'0 0.0
2019-Feb-11 11:22N 45°34' E 013°43'0 0.1
2019-Feb-11 10:54N 45°34' E 013°43'0 0.2
2019-Feb-11 10:27N 45°34' E 013°43'0 0.1
2019-Feb-11 09:59N 45°34' E 013°43'0 0.1
2019-Feb-11 09:29N 45°34' E 013°43'0 0.0
2019-Feb-11 08:58N 45°34' E 013°43'0 0.0
2019-Feb-11 08:25N 45°34' E 013°43'0 0.0
2019-Feb-11 07:56N 45°34' E 013°43'0 0.2
2019-Feb-11 07:29N 45°34' E 013°43'0 0.1
2019-Feb-11 06:59N 45°34' E 013°43'0 0.2
2019-Feb-11 06:24N 45°34' E 013°43'0 0.0
2019-Feb-11 05:53N 45°34' E 013°43'0 0.1
2019-Feb-11 05:11N 45°34' E 013°43'0 0.0
2019-Feb-11 04:49N 45°34' E 013°43'0 0.1
2019-Feb-11 04:25N 45°34' E 013°43'0 0.0
2019-Feb-11 03:58N 45°34' E 013°43'0 0.0
2019-Feb-11 03:28N 45°34' E 013°43'0 0.0
2019-Feb-11 02:53N 45°34' E 013°43'0 0.0
2019-Feb-11 02:29N 45°34' E 013°43'0 0.0
2019-Feb-11 01:55N 45°34' E 013°43'0 0.1
2019-Feb-11 01:30N 45°34' E 013°43'0 0.2
2019-Feb-11 00:58N 45°34' E 013°43'0 0.0
2019-Feb-11 00:25N 45°34' E 013°43'0 0.0
2019-Feb-10 23:55N 45°34' E 013°43'0 0.0
2019-Feb-10 23:27N 45°34' E 013°43'0 0.0
2019-Feb-10 23:00N 45°34' E 013°43'0 0.1
2019-Feb-10 22:28N 45°34' E 013°43'0 0.0
2019-Feb-10 21:57N 45°34' E 013°43'0 0.1
2019-Feb-10 21:23N 45°34' E 013°43'0 0.0
2019-Feb-10 21:00N 45°34' E 013°43'0 0.1
2019-Feb-10 20:30N 45°34' E 013°43'0 0.3
2019-Feb-10 20:00N 45°34' E 013°43'3 5.5
2019-Feb-10 19:30N 45°34' E 013°39'4 7.6
2019-Feb-10 19:00N 45°35' E 013°34'4 7.2
2019-Feb-10 18:30N 45°33' E 013°29'4 7.3
2019-Feb-10 18:00N 45°31' E 013°25'3 6.1
2019-Feb-10 17:30N 45°28' E 013°22'4 7.3
2019-Feb-10 17:00N 45°25' E 013°24'4 7.3
2019-Feb-10 16:30N 45°21' E 013°25'4 7.3
2019-Feb-10 16:00N 45°18' E 013°27'4 7.2
2019-Feb-10 15:30N 45°14' E 013°28'4 7.2
2019-Feb-10 15:00N 45°11' E 013°29'4 7.0
2019-Feb-10 14:30N 45°07' E 013°30'4 7.1
2019-Feb-10 14:00N 45°04' E 013°33'3 7.0
2019-Feb-10 13:30N 45°01' E 013°35'3 7.0
2019-Feb-10 13:00N 44°58' E 013°37'4 7.1
2019-Feb-10 12:30N 44°55' E 013°39'4 7.3
2019-Feb-10 12:00N 44°52' E 013°42'4 7.2
2019-Feb-10 11:30N 44°49' E 013°44'6 7.6
2019-Feb-10 10:42N 44°44' E 013°50'4 7.3
2019-Feb-10 10:12N 44°42' E 013°54'1 7.2
2019-Feb-10 10:00N 44°41' E 013°55'4 7.1
2019-Feb-10 09:30N 44°38' E 013°59'4 7.1
2019-Feb-10 09:00N 44°36' E 014°03'3 7.1
2019-Feb-10 08:30N 44°33' E 014°06'4 7.1
2019-Feb-10 08:00N 44°31' E 014°10'  

Dump ship's entire track history